Time;durP1;ratioP1;P1;durP2;ratioP2;P2;SDS_P1;SDS_P2;PMS_P1;PMS_P2;Temp;Humidity;BMP_temperature;BMP_pressure;BME280_temperature;BME280_humidity;BME280_pressure;Samples;Min_cycle;Max_cycle;Signal;HPM_P1;HPM_P2
2023/07/23 00:04:33;;;;;;;2.70;0.98;;;;;;;16.64;100.00;97985.44;15275361;19;20021;-59
2023/07/23 00:09:59;;;;;;;1.58;1.10;;;;;;;16.61;100.00;97978.53;15277358;19;20029;-65
2023/07/23 00:15:28;;;;;;;2.80;1.10;;;;;;;16.62;100.00;97980.22;15285136;19;20525;-57
2023/07/23 00:20:54;;;;;;;2.22;1.30;;;;;;;16.65;100.00;97976.22;15286371;19;20039;-65
2023/07/23 00:26:18;;;;;;;1.73;1.20;;;;;;;16.66;100.00;97974.34;15289408;19;20490;-62
2023/07/23 00:31:45;;;;;;;2.40;1.20;;;;;;;16.64;100.00;97964.50;15281561;19;20039;-61
2023/07/23 00:37:10;;;;;;;1.35;1.00;;;;;;;16.63;100.00;97965.56;15283372;19;20496;-62
2023/07/23 00:42:35;;;;;;;1.67;1.10;;;;;;;16.63;100.00;97968.28;15287441;19;20022;-60
2023/07/23 00:48:02;;;;;;;1.20;1.10;;;;;;;16.63;100.00;97962.00;15287552;19;20394;-62
2023/07/23 00:53:27;;;;;;;3.00;1.10;;;;;;;16.66;100.00;97960.75;15282156;19;20021;-63
2023/07/23 00:58:53;;;;;;;2.58;1.13;;;;;;;16.67;100.00;97967.84;15286983;19;20034;-63
2023/07/23 01:04:21;;;;;;;1.40;1.17;;;;;;;16.66;100.00;97955.28;15274667;19;20086;-60
2023/07/23 01:09:46;;;;;;;1.77;1.20;;;;;;;16.65;100.00;97946.31;15282934;19;20014;-62
2023/07/23 01:15:11;;;;;;;3.45;1.10;;;;;;;16.68;100.00;97953.22;15283406;19;20042;-60
2023/07/23 01:20:39;;;;;;;2.55;1.13;;;;;;;16.69;100.00;97941.28;15282456;19;20027;-60
2023/07/23 01:26:07;;;;;;;1.30;1.20;;;;;;;16.68;100.00;97937.75;15283630;19;20011;-60
2023/07/23 01:31:31;;;;;;;2.63;1.10;;;;;;;16.65;100.00;97927.28;15281910;19;20031;-60
2023/07/23 01:36:56;;;;;;;1.15;1.05;;;;;;;16.68;100.00;97931.44;15277240;19;20500;-59
2023/07/23 01:42:24;;;;;;;4.03;1.10;;;;;;;16.71;100.00;97934.56;15281642;19;20010;-62
2023/07/23 01:47:50;;;;;;;1.30;1.20;;;;;;;16.77;100.00;97927.44;15283179;19;20020;-61
2023/07/23 01:53:14;;;;;;;2.40;1.30;;;;;;;16.82;100.00;97927.66;15277714;19;20014;-59
2023/07/23 01:58:42;;;;;;;4.45;1.02;;;;;;;16.86;100.00;97928.06;15283000;19;20015;-60
2023/07/23 02:04:14;;;;;;;2.25;1.23;;;;;;;16.88;100.00;97920.53;15278047;19;20100;-59
2023/07/23 02:09:39;;;;;;;2.40;1.10;;;;;;;16.92;100.00;97913.59;15272335;19;20098;-59
2023/07/23 02:15:09;;;;;;;1.98;1.17;;;;;;;16.93;100.00;97912.56;15281628;19;20022;-60
2023/07/23 02:20:36;;;;;;;2.58;0.98;;;;;;;16.98;100.00;97914.66;15277039;19;20023;-62
2023/07/23 02:26:01;;;;;;;4.50;1.30;;;;;;;17.03;100.00;97920.28;15281956;19;20479;-60
2023/07/23 02:31:28;;;;;;;2.35;1.17;;;;;;;16.99;100.00;97927.22;15279117;19;20014;-59
2023/07/23 02:36:54;;;;;;;1.50;1.13;;;;;;;17.00;100.00;97929.72;15275775;19;20018;-62
2023/07/23 02:42:19;;;;;;;1.80;1.05;;;;;;;16.98;100.00;97931.00;15275455;19;20039;-61
2023/07/23 02:47:47;;;;;;;1.52;1.20;;;;;;;16.92;100.00;97925.31;15279786;19;20018;-60
2023/07/23 02:53:12;;;;;;;1.25;1.15;;;;;;;16.89;100.00;97924.91;15277006;19;20080;-61
2023/07/23 02:58:36;;;;;;;1.90;1.20;;;;;;;16.84;100.00;97931.00;15274899;19;20093;-61
2023/07/23 03:04:10;;;;;;;3.70;1.20;;;;;;;16.81;100.00;97941.47;15274449;19;20019;-61
2023/07/23 03:09:35;;;;;;;1.23;1.10;;;;;;;16.76;100.00;97937.50;15271290;19;20015;-60
2023/07/23 03:14:59;;;;;;;1.40;1.20;;;;;;;16.73;100.00;97937.09;15272676;19;20497;-61
2023/07/23 03:20:26;;;;;;;1.55;1.17;;;;;;;16.68;100.00;97937.75;15276315;19;20011;-63
2023/07/23 03:25:51;;;;;;;3.40;1.10;;;;;;;16.63;100.00;97927.50;15274700;19;20102;-64
2023/07/23 03:31:16;;;;;;;1.63;1.25;;;;;;;16.59;100.00;97922.69;15272581;19;20014;-63
2023/07/23 03:36:43;;;;;;;2.65;1.38;;;;;;;16.54;100.00;97914.34;15274663;19;20016;-62
2023/07/23 03:42:08;;;;;;;0.90;0.90;;;;;;;16.49;100.00;97918.50;15268711;19;20021;-62
2023/07/23 03:47:32;;;;;;;1.88;1.20;;;;;;;16.45;100.00;97906.41;15279739;19;20007;-62
2023/07/23 03:53:00;;;;;;;2.00;1.38;;;;;;;16.39;100.00;97912.69;15282703;19;20018;-63
2023/07/23 03:58:24;;;;;;;1.30;1.20;;;;;;;16.31;100.00;97899.31;15283781;19;20014;-63
2023/07/23 04:03:55;;;;;;;1.52;1.30;;;;;;;16.28;100.00;97911.47;15281077;19;20527;-63
2023/07/23 04:09:23;;;;;;;1.27;1.17;;;;;;;16.28;100.00;97911.47;15288381;19;20003;-63
2023/07/23 04:14:47;;;;;;;1.30;1.20;;;;;;;16.30;100.00;97914.78;15284035;19;20007;-62
2023/07/23 04:20:13;;;;;;;1.42;1.20;;;;;;;16.29;100.00;97907.66;15287537;19;20014;-64
2023/07/23 04:25:40;;;;;;;2.35;1.17;;;;;;;16.35;100.00;97897.81;15292204;19;20010;-62
2023/07/23 04:31:05;;;;;;;1.20;1.10;;;;;;;16.43;100.00;97896.78;15286406;19;20029;-63
2023/07/23 04:36:30;;;;;;;1.92;1.02;;;;;;;16.55;100.00;97894.25;15287208;19;20014;-62
2023/07/23 04:41:57;;;;;;;1.85;1.10;;;;;;;16.64;100.00;97892.97;15285904;19;20022;-61
2023/07/23 04:47:22;;;;;;;1.25;1.13;;;;;;;16.73;100.00;97888.13;15284454;19;20118;-62
2023/07/23 04:52:47;;;;;;;2.83;1.20;;;;;;;16.81;100.00;97887.88;15281708;19;20022;-63
2023/07/23 04:58:14;;;;;;;1.85;1.10;;;;;;;16.91;100.00;97882.81;15282958;19;20690;-62
2023/07/23 05:03:46;;;;;;;1.20;1.10;;;;;;;17.00;100.00;97883.47;15281414;19;20025;-60
2023/07/23 05:09:11;;;;;;;3.33;1.20;;;;;;;17.10;100.00;97877.56;15286289;19;20579;-61
2023/07/23 05:14:38;;;;;;;2.00;1.10;;;;;;;17.23;100.00;97871.19;15283871;19;20025;-60
2023/07/23 05:20:05;;;;;;;2.85;1.20;;;;;;;17.33;100.00;97878.91;15279631;19;21239;-61
2023/07/23 05:25:30;;;;;;;4.10;1.30;;;;;;;17.38;100.00;97873.63;15285998;19;20018;-53
2023/07/23 05:31:02;;;;;;;1.35;1.10;;;;;;;17.43;100.00;97873.81;15282328;19;20025;-56
2023/07/23 05:36:26;;;;;;;2.40;1.45;;;;;;;17.47;100.00;97875.03;15284241;19;20010;-54
2023/07/23 05:41:51;;;;;;;2.33;1.42;;;;;;;17.50;100.00;97871.88;15280792;19;20017;-55
2023/07/23 05:47:18;;;;;;;2.15;1.13;;;;;;;17.60;100.00;97865.94;15284457;19;20018;-54
2023/07/23 05:52:43;;;;;;;2.30;1.40;;;;;;;17.70;100.00;97865.44;15273097;19;20019;-56
2023/07/23 05:58:07;;;;;;;1.55;1.38;;;;;;;17.79;100.00;97857.81;15278857;19;20006;-54
2023/07/23 06:03:41;;;;;;;1.85;1.15;;;;;;;17.92;100.00;97859.63;15278155;19;20404;-55
2023/07/23 06:09:12;;;;;;;1.45;1.10;;;;;;;18.02;100.00;97852.63;15284029;19;20016;-56
2023/07/23 06:14:36;;;;;;;2.50;1.13;;;;;;;18.15;100.00;97854.41;15281504;19;20021;-53
2023/07/23 06:20:04;;;;;;;1.25;1.10;;;;;;;18.27;100.00;97850.94;15277640;19;20028;-52
2023/07/23 06:25:28;;;;;;;1.83;1.00;;;;;;;18.39;100.00;97849.16;15277118;19;20014;-57
2023/07/23 06:30:53;;;;;;;1.10;1.00;;;;;;;18.56;100.00;97845.81;15279928;19;20031;-55
2023/07/23 06:36:21;;;;;;;1.80;1.10;;;;;;;18.73;100.00;97851.47;15281138;19;20014;-55
2023/07/23 06:41:46;;;;;;;3.92;1.10;;;;;;;18.93;100.00;97843.91;15278244;19;20013;-53
2023/07/23 06:47:13;;;;;;;1.30;1.00;;;;;;;19.14;100.00;97844.50;15279223;19;20020;-51
2023/07/23 06:52:41;;;;;;;3.70;1.08;;;;;;;19.39;100.00;97840.78;15274400;19;20097;-54
2023/07/23 06:58:06;;;;;;;1.23;1.00;;;;;;;19.63;100.00;97830.72;15274898;19;20018;-54
2023/07/23 07:03:37;;;;;;;2.08;1.10;;;;;;;19.90;100.00;97833.06;15275706;19;20015;-51
2023/07/23 07:09:05;;;;;;;1.38;1.00;;;;;;;20.17;100.00;97824.38;15279695;19;20033;-56
2023/07/23 07:14:29;;;;;;;2.03;1.05;;;;;;;20.44;100.00;97823.88;15273699;19;20028;-57
2023/07/23 07:19:54;;;;;;;1.20;1.08;;;;;;;20.69;100.00;97820.03;15274352;19;20021;-54
2023/07/23 07:25:21;;;;;;;5.03;1.20;;;;;;;21.00;98.36;97828.88;15275299;19;20014;-55
2023/07/23 07:30:46;;;;;;;2.70;1.00;;;;;;;21.31;87.71;97824.00;15271916;19;20021;-55
2023/07/23 07:36:10;;;;;;;2.38;1.05;;;;;;;21.59;91.00;97816.81;15276057;19;20006;-53
2023/07/23 07:41:38;;;;;;;1.13;0.90;;;;;;;21.92;81.84;97821.50;15274932;19;20015;-53
2023/07/23 07:47:02;;;;;;;3.47;0.90;;;;;;;22.27;79.96;97819.56;15275988;19;20020;-54
2023/07/23 07:52:27;;;;;;;1.55;0.90;;;;;;;22.41;71.67;97817.31;15271511;19;20021;-52
2023/07/23 07:57:55;;;;;;;4.13;1.00;;;;;;;22.60;73.22;97804.13;15273225;19;20558;-51
2023/07/23 08:03:27;;;;;;;2.05;1.05;;;;;;;22.76;67.32;97803.22;15266543;19;20018;-55
2023/07/23 08:08:54;;;;;;;1.38;1.00;;;;;;;22.93;66.63;97791.31;15274676;19;20385;-56
2023/07/23 08:14:22;;;;;;;2.72;0.90;;;;;;;23.06;66.92;97801.06;15276101;19;20015;-55
2023/07/23 08:19:48;;;;;;;3.60;0.85;;;;;;;23.19;64.35;97797.09;15272089;19;20021;-56
2023/07/23 08:25:14;;;;;;;6.90;1.10;;;;;;;23.34;64.72;97796.44;15276986;19;20022;-57
2023/07/23 08:30:42;;;;;;;1.70;1.05;;;;;;;23.52;63.09;97787.00;15272885;19;20535;-53
2023/07/23 08:36:07;;;;;;;3.92;0.98;;;;;;;23.64;64.06;97784.91;15276275;19;20613;-53
2023/07/23 08:41:38;;;;;;;2.60;0.90;;;;;;;23.81;63.00;97775.69;15284493;19;20476;-58
2023/07/23 08:47:17;;;;;;;2.58;0.90;;;;;;;23.76;61.43;97781.97;15293448;19;20110;-53
2023/07/23 08:52:44;;;;;;;5.20;0.80;;;;;;;23.79;62.04;97775.13;15287211;19;20739;-53
2023/07/23 08:58:09;;;;;;;1.77;1.00;;;;;;;23.93;65.94;97773.56;15295552;19;20019;-52
2023/07/23 09:03:38;;;;;;;2.90;1.00;;;;;;;24.08;63.86;97767.38;15286096;19;20014;-51
2023/07/23 09:09:03;;;;;;;4.05;1.00;;;;;;;24.14;64.96;97771.00;15284954;19;20010;-50
2023/07/23 09:14:28;;;;;;;4.05;0.80;;;;;;;24.23;63.59;97752.03;15286726;19;20283;-52
2023/07/23 09:19:56;;;;;;;3.83;0.70;;;;;;;24.29;64.71;97762.81;15284057;19;20618;-51
2023/07/23 09:25:21;;;;;;;1.58;0.70;;;;;;;24.38;61.70;97759.56;15287741;19;20030;-51
2023/07/23 09:30:45;;;;;;;6.15;1.00;;;;;;;24.29;60.57;97762.81;15282846;19;20537;-53
2023/07/23 09:36:14;;;;;;;1.92;0.82;;;;;;;24.35;60.08;97757.34;15285164;19;20011;-48
2023/07/23 09:41:42;;;;;;;2.47;0.90;;;;;;;24.51;60.13;97759.06;15277870;19;20475;-50
2023/07/23 09:47:08;;;;;;;2.65;0.98;;;;;;;24.62;58.38;97755.25;15281880;19;20030;-49
2023/07/23 09:52:42;;;;;;;2.30;0.90;;;;;;;24.66;58.85;97760.22;15280904;19;20033;-53
2023/07/23 09:58:08;;;;;;;1.92;0.80;;;;;;;24.60;58.53;97756.59;15281643;19;20034;-49
2023/07/23 10:03:40;;;;;;;1.92;0.90;;;;;;;24.55;57.48;97738.16;15278166;19;20015;-49
2023/07/23 10:09:09;;;;;;;3.95;0.80;;;;;;;24.53;57.98;97731.25;15280623;19;20025;-51
2023/07/23 10:14:33;;;;;;;1.23;0.90;;;;;;;24.68;56.52;97720.31;15283344;19;20010;-48
2023/07/23 10:19:59;;;;;;;2.58;0.80;;;;;;;24.89;53.45;97725.88;15276405;19;20011;-51
2023/07/23 10:25:37;;;;;;;0.82;0.70;;;;;;;24.88;50.87;97735.25;15280882;19;20463;-49
2023/07/23 10:31:21;;;;;;;9.30;0.95;;;;;;;24.76;48.58;97743.75;15280187;19;20020;-57
2023/07/23 10:37:19;;;;;;;2.72;0.88;;;;;;;24.78;50.20;97736.03;15283046;19;20018;-57
2023/07/23 10:42:47;;;;;;;1.65;0.90;;;;;;;24.56;50.67;97728.78;15276029;19;20021;-53
2023/07/23 10:48:12;;;;;;;1.42;0.80;;;;;;;24.62;52.10;97732.38;15282415;19;20023;-53
2023/07/23 10:53:41;;;;;;;1.92;0.90;;;;;;;24.70;52.31;97733.81;15279415;19;20049;-51
2023/07/23 10:59:12;;;;;;;1.25;0.85;;;;;;;24.74;53.40;97715.66;15276851;19;20010;-52
2023/07/23 11:04:39;;;;;;;;;;;;;;;24.67;51.01;97717.81;15278370;19;20031;-51
2023/07/23 11:10:05;;;;;;;1.63;0.60;;;;;;;24.69;53.22;97726.66;15277358;19;20241;-54
2023/07/23 11:15:33;;;;;;;2.88;0.80;;;;;;;24.86;51.32;97727.28;15275071;19;20726;-54
2023/07/23 11:21:03;;;;;;;2.65;0.80;;;;;;;25.12;52.74;97713.50;15273057;19;20018;-52
2023/07/23 11:26:28;;;;;;;2.35;0.60;;;;;;;25.49;52.31;97695.09;15279900;19;20015;-56
2023/07/23 11:31:57;;;;;;;2.83;0.70;;;;;;;25.56;51.38;97695.63;15274085;19;20019;-54
2023/07/23 11:37:21;;;;;;;0.60;0.60;;;;;;;25.42;49.71;97706.41;15277439;19;20018;-56
2023/07/23 11:42:45;;;;;;;2.25;0.70;;;;;;;25.38;50.68;97699.75;15274618;19;20006;-52
2023/07/23 11:48:17;;;;;;;7.32;0.90;;;;;;;25.66;50.54;97689.28;15276584;19;20015;-51
2023/07/23 11:53:44;;;;;;;3.00;0.70;;;;;;;25.94;50.17;97689.78;15273643;19;20799;-53
2023/07/23 11:59:10;;;;;;;2.20;0.60;;;;;;;26.20;48.92;97678.69;15275903;19;20017;-56
2023/07/23 12:04:46;;;;;;;2.53;0.60;;;;;;;26.55;48.66;97671.34;15274887;19;20098;-55
2023/07/23 12:10:12;;;;;;;0.70;0.70;;;;;;;26.85;46.53;97675.09;15278259;19;20090;-54
2023/07/23 12:15:37;;;;;;;1.25;0.60;;;;;;;26.93;45.84;97660.66;15288989;19;20094;-54
2023/07/23 12:21:04;;;;;;;2.85;0.68;;;;;;;26.94;43.32;97683.56;15279146;19;20026;-51
2023/07/23 12:26:29;;;;;;;22.73;1.50;;;;;;;26.85;44.46;97666.78;15288467;19;20411;-53
2023/07/23 12:32:12;;;;;;;4.50;0.90;;;;;;;26.53;42.66;97671.63;15279592;19;20022;-53
2023/07/23 12:37:39;;;;;;;6.25;0.70;;;;;;;26.33;44.01;97672.56;15286901;19;20011;-57
2023/07/23 12:43:04;;;;;;;21.15;1.40;;;;;;;26.18;42.63;97659.66;15280474;19;20022;-58
2023/07/23 12:48:29;;;;;;;0.90;0.70;;;;;;;26.14;42.80;97675.97;15285821;19;20006;-57
2023/07/23 12:53:57;;;;;;;3.00;0.70;;;;;;;26.00;41.96;97691.44;15279549;19;20089;-53
2023/07/23 12:59:22;;;;;;;8.30;0.98;;;;;;;25.75;42.75;97687.63;15281134;19;20021;-53
2023/07/23 13:04:47;;;;;;;14.70;1.30;;;;;;;25.30;44.40;97717.66;15283519;19;20486;-52
2023/07/23 13:10:17;;;;;;;4.18;0.60;;;;;;;24.90;45.72;97681.53;15285552;19;20062;-49
2023/07/23 13:15:42;;;;;;;8.65;1.10;;;;;;;24.51;46.96;97705.91;15284154;19;20078;-49
2023/07/23 13:21:06;;;;;;;8.57;1.20;;;;;;;24.36;47.59;97712.19;15278944;19;20519;-51
2023/07/23 13:26:33;;;;;;;12.63;1.30;;;;;;;24.09;47.04;97718.66;15281356;19;20037;-51
2023/07/23 13:31:59;;;;;;;1.27;0.60;;;;;;;23.96;48.59;97734.56;15280372;19;20017;-52
2023/07/23 13:37:24;;;;;;;18.90;1.20;;;;;;;23.85;50.13;97746.56;15280393;19;20019;-50
2023/07/23 13:42:52;;;;;;;2.05;0.50;;;;;;;23.82;49.92;97731.41;15280197;19;20021;-54
2023/07/23 13:48:16;;;;;;;28.80;1.80;;;;;;;23.88;51.46;97729.53;15283883;19;20382;-51
2023/07/23 13:53:41;;;;;;;2.97;0.60;;;;;;;23.83;51.40;97729.47;15277156;19;20014;-54
2023/07/23 13:59:09;;;;;;;0.77;0.40;;;;;;;23.85;52.02;97727.28;15276160;19;20113;-49
2023/07/23 14:04:41;;;;;;;0.50;0.50;;;;;;;23.83;52.09;97715.72;14770095;19;10001265;-54
2023/07/23 14:10:06;;;;;;;9.80;1.10;;;;;;;23.80;52.27;97716.28;15277172;19;20055;-54
2023/07/23 14:15:34;;;;;;;3.17;0.82;;;;;;;23.74;51.80;97722.81;15278789;19;20393;-54
2023/07/23 14:20:58;;;;;;;37.72;2.70;;;;;;;23.73;52.32;97722.00;15276533;19;20014;-54
2023/07/23 14:26:23;;;;;;;37.47;3.03;;;;;;;23.79;53.21;97720.13;15278654;19;20035;-54
2023/07/23 14:31:50;;;;;;;18.02;1.17;;;;;;;23.81;54.34;97739.94;15270158;19;20009;-52
2023/07/23 14:37:17;;;;;;;18.83;1.92;;;;;;;23.78;54.54;97701.97;15277267;19;20532;-54
2023/07/23 14:42:41;;;;;;;3.58;1.00;;;;;;;23.73;54.78;97715.66;15276059;19;20024;-53
2023/07/23 14:48:09;;;;;;;1.40;1.20;;;;;;;23.61;54.00;97711.19;15276839;19;20032;-52
2023/07/23 14:53:33;;;;;;;2.40;1.40;;;;;;;23.63;53.57;97717.25;15273442;19;20354;-49
2023/07/23 14:58:58;;;;;;;2.65;1.38;;;;;;;23.63;54.21;97703.50;15275255;19;20018;-53
2023/07/23 15:04:26;;;;;;;3.70;0.98;;;;;;;23.53;54.85;97692.44;15269820;19;20502;-50
2023/07/23 15:09:51;;;;;;;6.15;1.30;;;;;;;23.44;55.73;97683.84;15273575;19;20594;-50
2023/07/23 15:15:18;;;;;;;1.10;1.00;;;;;;;23.39;56.21;97678.31;15276702;19;20097;-51
2023/07/23 15:20:47;;;;;;;1.20;1.10;;;;;;;23.39;56.97;97681.88;15271256;19;20085;-50
2023/07/23 15:26:15;;;;;;;1.10;1.00;;;;;;;23.36;56.83;97685.16;15271497;19;20070;-52
2023/07/23 15:31:43;;;;;;;1.23;1.10;;;;;;;23.42;58.50;97677.78;15270960;19;20092;-53
2023/07/23 15:37:11;;;;;;;21.75;2.08;;;;;;;23.44;58.15;97681.09;15271930;19;20024;-53
2023/07/23 15:42:35;;;;;;;8.93;1.65;;;;;;;23.46;58.99;97683.59;15271730;19;20022;-54
2023/07/23 15:48:00;;;;;;;3.47;1.10;;;;;;;23.50;56.54;97702.06;15273609;19;20441;-56
2023/07/23 15:53:27;;;;;;;5.57;1.25;;;;;;;23.51;60.10;97681.72;15271027;19;20019;-49
2023/07/23 15:58:51;;;;;;;10.35;1.13;;;;;;;23.54;57.56;97666.59;15272836;19;20017;-51
2023/07/23 16:04:16;;;;;;;18.67;1.75;;;;;;;23.61;57.65;97675.44;15266486;19;20090;-49
2023/07/23 16:09:43;;;;;;;11.57;1.45;;;;;;;23.57;59.60;97688.09;15270863;19;20102;-50
2023/07/23 16:15:08;;;;;;;11.35;1.45;;;;;;;23.55;59.95;97673.75;15272041;19;20021;-50
2023/07/23 16:20:33;;;;;;;9.60;1.00;;;;;;;23.64;58.99;97663.91;15270613;19;20042;-50
2023/07/23 16:26:00;;;;;;;3.00;0.90;;;;;;;23.71;59.43;97660.94;15270625;19;20655;-50
2023/07/23 16:31:24;;;;;;;1.30;0.60;;;;;;;23.78;59.32;97657.97;15266448;19;20014;-56
2023/07/23 16:36:56;;;;;;;2.03;0.70;;;;;;;23.79;59.29;97654.94;15265212;19;20078;-52
2023/07/23 16:42:26;;;;;;;12.15;1.60;;;;;;;23.80;60.65;97651.09;15266978;19;20014;-50
2023/07/23 16:47:52;;;;;;;4.35;0.70;;;;;;;23.81;60.67;97652.75;15270949;19;20010;-52
2023/07/23 16:53:21;;;;;;;0.82;0.50;;;;;;;23.81;60.17;97643.69;15267125;19;20029;-54
2023/07/23 16:58:49;;;;;;;2.05;0.77;;;;;;;23.82;61.42;97640.66;15281152;19;20013;-56
2023/07/23 17:04:13;;;;;;;1.35;0.80;;;;;;;23.84;61.07;97646.72;15280180;19;20039;-52
2023/07/23 17:09:40;;;;;;;1.13;0.70;;;;;;;23.85;62.50;97642.88;15275877;19;20011;-50
2023/07/23 17:15:09;;;;;;;3.15;0.65;;;;;;;23.87;62.74;97637.09;15281815;19;20015;-49
2023/07/23 17:20:34;;;;;;;29.73;2.33;;;;;;;23.89;63.37;97645.06;15281924;19;20007;-54
2023/07/23 17:25:59;;;;;;;23.00;1.70;;;;;;;23.95;62.91;97644.84;15281935;19;20500;-53
2023/07/23 17:31:26;;;;;;;17.85;1.70;;;;;;;24.02;62.93;97635.56;15273034;19;20121;-56
2023/07/23 17:36:51;;;;;;;11.50;0.90;;;;;;;24.14;61.58;97633.41;15281123;19;20586;-49
2023/07/23 17:42:17;;;;;;;31.05;1.70;;;;;;;24.18;61.38;97644.69;15270515;19;20021;-54
2023/07/23 17:47:45;;;;;;;6.43;1.10;;;;;;;24.18;59.92;97640.00;15280238;19;20015;-49
2023/07/23 17:53:10;;;;;;;48.75;3.33;;;;;;;24.15;60.63;97633.13;15270787;19;20019;-52
2023/07/23 17:58:35;;;;;;;35.17;2.47;;;;;;;24.14;59.79;97641.66;15275543;19;20021;-52
2023/07/23 18:04:05;;;;;;;10.70;1.30;;;;;;;24.16;60.40;97647.72;15279697;19;20119;-51
2023/07/23 18:09:33;;;;;;;76.32;4.80;;;;;;;24.15;60.80;97644.13;15274393;19;20020;-53
2023/07/23 18:14:58;;;;;;;1.25;0.63;;;;;;;24.15;60.50;97646.06;15276330;19;20016;-53
2023/07/23 18:20:25;;;;;;;1.85;0.80;;;;;;;24.09;61.22;97636.13;15276433;19;20514;-52
2023/07/23 18:25:52;;;;;;;1.92;0.80;;;;;;;24.05;62.11;97637.78;15280225;19;20018;-52
2023/07/23 18:31:24;;;;;;;0.70;0.70;;;;;;;24.00;62.05;97628.38;15276273;19;20014;-51
2023/07/23 18:36:56;;;;;;;3.20;0.80;;;;;;;23.94;62.05;97634.91;15279739;19;20021;-53
2023/07/23 18:42:20;;;;;;;2.08;0.73;;;;;;;23.91;62.33;97629.97;15274420;19;20348;-56
2023/07/23 18:47:45;;;;;;;1.13;0.55;;;;;;;23.85;63.00;97637.38;15273157;19;20011;-50
2023/07/23 18:53:12;;;;;;;0.88;0.60;;;;;;;23.78;63.45;97625.75;15273221;19;20363;-55
2023/07/23 18:58:37;;;;;;;1.13;0.77;;;;;;;23.73;64.33;97627.66;15276576;19;20028;-52
2023/07/23 19:04:02;;;;;;;3.53;0.80;;;;;;;23.66;63.79;97627.91;15272149;19;20019;-53
2023/07/23 19:09:29;;;;;;;5.28;0.82;;;;;;;23.65;64.46;97634.50;15276300;19;20031;-50
2023/07/23 19:14:56;;;;;;;1.95;0.73;;;;;;;23.60;65.53;97635.28;15277821;19;20039;-51
2023/07/23 19:20:22;;;;;;;2.58;0.88;;;;;;;23.46;66.24;97623.13;15261396;19;20347;-54
2023/07/23 19:25:49;;;;;;;2.85;0.90;;;;;;;23.45;66.61;97633.28;15273652;19;20010;-53
2023/07/23 19:31:14;;;;;;;11.48;1.20;;;;;;;23.38;68.33;97643.69;15272055;19;20025;-50
2023/07/23 19:36:40;;;;;;;5.90;0.80;;;;;;;23.39;69.91;97637.09;15274575;19;20010;-50
2023/07/23 19:42:08;;;;;;;9.50;1.00;;;;;;;23.37;71.92;97653.84;15270426;19;20006;-51
2023/07/23 19:47:33;;;;;;;4.63;0.88;;;;;;;23.31;74.83;97638.41;15271711;19;20050;-51
2023/07/23 19:52:58;;;;;;;18.85;1.55;;;;;;;23.21;77.42;97647.41;15244209;19;20021;-52
2023/07/23 19:58:25;;;;;;;3.15;1.00;;;;;;;23.12;82.90;97634.38;15262167;19;20011;-53
2023/07/23 20:03:57;;;;;;;3.05;0.90;;;;;;;23.01;87.39;97633.47;15258085;19;20106;-53
2023/07/23 20:09:22;;;;;;;0.80;0.80;;;;;;;22.88;92.00;97630.06;15269277;19;20022;-56
2023/07/23 20:14:50;;;;;;;5.20;1.10;;;;;;;22.81;93.68;97634.13;15284612;19;20047;-51
2023/07/23 20:20:15;;;;;;;3.53;0.90;;;;;;;22.71;97.36;97638.44;15277118;19;20015;-52
2023/07/23 20:25:39;;;;;;;6.15;1.00;;;;;;;22.65;99.36;97633.13;15275752;19;20010;-53
2023/07/23 20:31:07;;;;;;;2.88;0.80;;;;;;;22.57;100.00;97632.53;15278312;19;20006;-55
2023/07/23 20:36:33;;;;;;;1.90;0.80;;;;;;;22.43;100.00;97632.09;15288262;19;20250;-58
2023/07/23 20:41:58;;;;;;;0.80;0.80;;;;;;;22.32;100.00;97638.53;15284080;19;20029;-51
2023/07/23 20:47:26;;;;;;;2.15;0.90;;;;;;;22.21;100.00;97634.00;15285608;19;20021;-53
2023/07/23 20:52:51;;;;;;;1.65;0.90;;;;;;;22.05;100.00;97633.81;15282554;19;20014;-51
2023/07/23 20:58:15;;;;;;;1.48;1.02;;;;;;;21.89;100.00;97635.53;15280526;19;20010;-50
2023/07/23 21:03:42;;;;;;;1.25;1.00;;;;;;;21.77;100.00;97632.94;15278002;19;20081;-53
2023/07/23 21:09:08;;;;;;;0.80;0.80;;;;;;;21.67;100.00;97638.28;15284756;19;20351;-49
2023/07/23 21:14:33;;;;;;;0.80;0.80;;;;;;;21.55;100.00;97641.91;15283196;19;20043;-50
2023/07/23 21:20:00;;;;;;;1.40;0.90;;;;;;;21.51;100.00;97640.75;15281160;19;20110;-49
2023/07/23 21:25:25;;;;;;;2.67;1.00;;;;;;;21.47;100.00;97639.59;15284978;19;20474;-51
2023/07/23 21:30:52;;;;;;;1.48;0.90;;;;;;;21.47;100.00;97642.34;15276082;19;20050;-51
2023/07/23 21:36:19;;;;;;;1.10;1.00;;;;;;;21.47;100.00;97633.28;15284461;19;20014;-50
2023/07/23 21:41:45;;;;;;;1.05;0.95;;;;;;;21.40;100.00;97644.44;15277330;19;20018;-50
2023/07/23 21:47:10;;;;;;;0.80;0.80;;;;;;;21.33;100.00;97635.56;15282387;19;20044;-49
2023/07/23 21:52:37;;;;;;;1.65;0.80;;;;;;;21.31;100.00;97618.53;15276578;19;20018;-49
2023/07/23 21:58:02;;;;;;;1.02;0.93;;;;;;;21.23;100.00;97617.06;15283116;19;20014;-49
2023/07/23 22:03:26;;;;;;;5.10;1.00;;;;;;;21.17;100.00;97624.34;15273186;19;20014;-52
2023/07/23 22:08:53;;;;;;;3.45;0.95;;;;;;;21.09;100.00;97627.53;15279424;19;20021;-50
2023/07/23 22:14:18;;;;;;;1.02;0.90;;;;;;;21.02;100.00;97624.94;15279231;19;20025;-49
2023/07/23 22:19:43;;;;;;;3.65;0.93;;;;;;;21.00;100.00;97623.53;15275778;19;20078;-50
2023/07/23 22:25:10;;;;;;;1.25;0.90;;;;;;;20.92;100.00;97620.13;15275395;19;20389;-51
2023/07/23 22:30:28;;;;;;;1.30;0.80;;;;;;;20.88;100.00;97605.25;15274804;19;20367;-50
2023/07/23 22:35:53;;;;;;;2.00;1.00;;;;;;;20.86;100.00;97601.13;15274782;19;20014;-49
2023/07/23 22:41:20;;;;;;;1.58;1.00;;;;;;;20.83;100.00;97604.34;15276934;19;20013;-53
2023/07/23 22:46:45;;;;;;;1.83;0.80;;;;;;;20.75;100.00;97594.66;15278141;19;20637;-49
2023/07/23 22:52:09;;;;;;;1.40;1.00;;;;;;;20.71;100.00;97594.28;15274628;19;20082;-49
2023/07/23 22:57:36;;;;;;;0.90;0.90;;;;;;;20.71;100.00;97598.94;15279034;19;20034;-49
2023/07/23 23:03:02;;;;;;;2.80;1.10;;;;;;;20.59;100.00;97602.56;15269767;19;20781;-53
2023/07/23 23:08:27;;;;;;;1.85;0.95;;;;;;;20.53;100.00;97594.50;15273098;19;20104;-50
2023/07/23 23:13:54;;;;;;;1.67;0.93;;;;;;;20.47;100.00;97594.41;15271447;19;20074;-50
2023/07/23 23:19:19;;;;;;;2.65;1.10;;;;;;;20.42;100.00;97579.81;15275826;19;20424;-50
2023/07/23 23:24:43;;;;;;;2.22;1.20;;;;;;;20.36;100.00;97575.34;15272487;19;20014;-52
2023/07/23 23:30:11;;;;;;;1.75;1.27;;;;;;;20.29;100.00;97567.28;15275003;19;20049;-51
2023/07/23 23:35:36;;;;;;;1.50;1.00;;;;;;;20.24;100.00;97558.97;15276728;19;20091;-51
2023/07/23 23:41:01;;;;;;;1.88;1.02;;;;;;;20.18;100.00;97549.84;15270656;19;20022;-50
2023/07/23 23:46:29;;;;;;;1.17;1.08;;;;;;;20.12;100.00;97546.19;15275073;19;20017;-50
2023/07/23 23:51:57;;;;;;;1.92;0.95;;;;;;;20.07;100.00;97548.84;15271317;19;20018;-49
2023/07/23 23:57:21;;;;;;;1.95;1.10;;;;;;;20.01;100.00;97542.44;15274983;19;20753;-49
